sensor_id;sensor_type;location;lat;lon;timestamp;P1;durP1;ratioP1;P2;durP2;ratioP2
16179;SDS011;8196;49.428;10.906;2024-01-06T00:02:21;5.55;;;4.00;;
16179;SDS011;8196;49.428;10.906;2024-01-06T00:04:48;4.32;;;3.40;;
16179;SDS011;8196;49.428;10.906;2024-01-06T00:07:15;3.72;;;3.33;;
16179;SDS011;8196;49.428;10.906;2024-01-06T00:09:42;5.03;;;4.07;;
16179;SDS011;8196;49.428;10.906;2024-01-06T00:12:10;5.68;;;4.65;;
16179;SDS011;8196;49.428;10.906;2024-01-06T00:14:37;9.38;;;6.32;;
16179;SDS011;8196;49.428;10.906;2024-01-06T00:17:04;8.48;;;6.78;;
16179;SDS011;8196;49.428;10.906;2024-01-06T00:19:31;9.93;;;6.47;;
16179;SDS011;8196;49.428;10.906;2024-01-06T00:21:58;8.20;;;6.30;;
16179;SDS011;8196;49.428;10.906;2024-01-06T00:24:26;8.80;;;5.90;;
16179;SDS011;8196;49.428;10.906;2024-01-06T00:26:54;8.70;;;6.57;;
16179;SDS011;8196;49.428;10.906;2024-01-06T00:29:21;5.95;;;4.97;;
16179;SDS011;8196;49.428;10.906;2024-01-06T00:31:48;8.60;;;5.47;;
16179;SDS011;8196;49.428;10.906;2024-01-06T00:34:17;6.10;;;4.78;;
16179;SDS011;8196;49.428;10.906;2024-01-06T00:36:46;4.80;;;3.80;;
16179;SDS011;8196;49.428;10.906;2024-01-06T00:39:13;5.00;;;3.88;;
16179;SDS011;8196;49.428;10.906;2024-01-06T00:41:40;6.07;;;4.35;;
16179;SDS011;8196;49.428;10.906;2024-01-06T00:44:08;5.35;;;4.38;;
16179;SDS011;8196;49.428;10.906;2024-01-06T00:46:35;7.53;;;5.25;;
16179;SDS011;8196;49.428;10.906;2024-01-06T00:49:02;8.00;;;5.80;;
16179;SDS011;8196;49.428;10.906;2024-01-06T00:51:30;5.30;;;4.40;;
16179;SDS011;8196;49.428;10.906;2024-01-06T00:53:57;6.40;;;4.95;;
16179;SDS011;8196;49.428;10.906;2024-01-06T00:56:24;4.00;;;3.58;;
16179;SDS011;8196;49.428;10.906;2024-01-06T00:58:53;4.05;;;3.35;;
16179;SDS011;8196;49.428;10.906;2024-01-06T01:01:20;3.95;;;3.33;;
16179;SDS011;8196;49.428;10.906;2024-01-06T01:03:47;7.10;;;5.22;;
16179;SDS011;8196;49.428;10.906;2024-01-06T01:06:14;5.75;;;4.20;;
16179;SDS011;8196;49.428;10.906;2024-01-06T01:08:42;5.70;;;4.63;;
16179;SDS011;8196;49.428;10.906;2024-01-06T01:11:09;8.73;;;6.23;;
16179;SDS011;8196;49.428;10.906;2024-01-06T01:13:36;8.05;;;5.63;;
16179;SDS011;8196;49.428;10.906;2024-01-06T01:16:03;9.50;;;7.30;;
16179;SDS011;8196;49.428;10.906;2024-01-06T01:18:31;11.57;;;7.60;;
16179;SDS011;8196;49.428;10.906;2024-01-06T01:20:58;12.40;;;8.18;;
16179;SDS011;8196;49.428;10.906;2024-01-06T01:25:54;12.65;;;8.27;;
16179;SDS011;8196;49.428;10.906;2024-01-06T01:28:21;10.13;;;7.25;;
16179;SDS011;8196;49.428;10.906;2024-01-06T01:30:48;10.95;;;7.95;;
16179;SDS011;8196;49.428;10.906;2024-01-06T01:33:16;10.15;;;7.00;;
16179;SDS011;8196;49.428;10.906;2024-01-06T01:35:43;13.27;;;8.53;;
16179;SDS011;8196;49.428;10.906;2024-01-06T01:38:10;11.38;;;7.60;;
16179;SDS011;8196;49.428;10.906;2024-01-06T01:40:38;11.50;;;7.23;;
16179;SDS011;8196;49.428;10.906;2024-01-06T01:45:33;11.90;;;7.97;;
16179;SDS011;8196;49.428;10.906;2024-01-06T01:48:00;8.23;;;5.60;;
16179;SDS011;8196;49.428;10.906;2024-01-06T01:50:27;10.27;;;5.80;;
16179;SDS011;8196;49.428;10.906;2024-01-06T01:52:57;9.27;;;5.70;;
16179;SDS011;8196;49.428;10.906;2024-01-06T01:55:24;9.25;;;5.72;;
16179;SDS011;8196;49.428;10.906;2024-01-06T01:57:52;8.55;;;5.25;;
16179;SDS011;8196;49.428;10.906;2024-01-06T02:00:19;8.00;;;5.13;;
16179;SDS011;8196;49.428;10.906;2024-01-06T02:02:49;7.05;;;4.20;;
16179;SDS011;8196;49.428;10.906;2024-01-06T02:05:18;7.18;;;5.05;;
16179;SDS011;8196;49.428;10.906;2024-01-06T02:07:45;7.20;;;4.75;;
16179;SDS011;8196;49.428;10.906;2024-01-06T02:10:16;9.00;;;4.88;;
16179;SDS011;8196;49.428;10.906;2024-01-06T02:12:44;5.83;;;4.27;;
16179;SDS011;8196;49.428;10.906;2024-01-06T02:15:11;6.70;;;4.47;;
16179;SDS011;8196;49.428;10.906;2024-01-06T02:17:38;6.03;;;4.17;;
16179;SDS011;8196;49.428;10.906;2024-01-06T02:20:07;7.03;;;4.60;;
16179;SDS011;8196;49.428;10.906;2024-01-06T02:22:35;6.13;;;4.30;;
16179;SDS011;8196;49.428;10.906;2024-01-06T02:25:04;5.00;;;3.55;;
16179;SDS011;8196;49.428;10.906;2024-01-06T02:27:33;6.53;;;3.92;;
16179;SDS011;8196;49.428;10.906;2024-01-06T02:30:01;6.20;;;4.00;;
16179;SDS011;8196;49.428;10.906;2024-01-06T02:32:28;6.38;;;4.30;;
16179;SDS011;8196;49.428;10.906;2024-01-06T02:34:55;7.00;;;4.28;;
16179;SDS011;8196;49.428;10.906;2024-01-06T02:37:22;7.85;;;4.22;;
16179;SDS011;8196;49.428;10.906;2024-01-06T02:39:51;5.90;;;4.30;;
16179;SDS011;8196;49.428;10.906;2024-01-06T02:42:18;6.50;;;4.43;;
16179;SDS011;8196;49.428;10.906;2024-01-06T02:44:45;7.03;;;3.80;;
16179;SDS011;8196;49.428;10.906;2024-01-06T02:47:12;5.03;;;3.50;;
16179;SDS011;8196;49.428;10.906;2024-01-06T02:49:40;4.68;;;3.55;;
16179;SDS011;8196;49.428;10.906;2024-01-06T02:52:07;7.15;;;3.80;;
16179;SDS011;8196;49.428;10.906;2024-01-06T02:54:34;5.00;;;3.42;;
16179;SDS011;8196;49.428;10.906;2024-01-06T02:57:01;6.55;;;3.97;;
16179;SDS011;8196;49.428;10.906;2024-01-06T02:59:30;4.83;;;3.87;;
16179;SDS011;8196;49.428;10.906;2024-01-06T03:01:57;5.07;;;3.45;;
16179;SDS011;8196;49.428;10.906;2024-01-06T03:04:24;3.70;;;3.30;;
16179;SDS011;8196;49.428;10.906;2024-01-06T03:06:52;4.60;;;3.33;;
16179;SDS011;8196;49.428;10.906;2024-01-06T03:09:20;5.40;;;3.03;;
16179;SDS011;8196;49.428;10.906;2024-01-06T03:11:47;7.03;;;3.38;;
16179;SDS011;8196;49.428;10.906;2024-01-06T03:14:14;5.65;;;3.78;;
16179;SDS011;8196;49.428;10.906;2024-01-06T03:16:41;4.75;;;3.58;;
16179;SDS011;8196;49.428;10.906;2024-01-06T03:19:09;5.35;;;3.53;;
16179;SDS011;8196;49.428;10.906;2024-01-06T03:21:36;6.78;;;4.07;;
16179;SDS011;8196;49.428;10.906;2024-01-06T03:24:03;5.03;;;3.55;;
16179;SDS011;8196;49.428;10.906;2024-01-06T03:26:31;4.43;;;3.47;;
16179;SDS011;8196;49.428;10.906;2024-01-06T03:28:58;4.87;;;3.63;;
16179;SDS011;8196;49.428;10.906;2024-01-06T03:31:26;5.20;;;3.70;;
16179;SDS011;8196;49.428;10.906;2024-01-06T03:33:53;4.53;;;3.20;;
16179;SDS011;8196;49.428;10.906;2024-01-06T03:36:24;4.43;;;3.50;;
16179;SDS011;8196;49.428;10.906;2024-01-06T03:38:51;4.68;;;3.35;;
16179;SDS011;8196;49.428;10.906;2024-01-06T03:41:18;4.63;;;3.58;;
16179;SDS011;8196;49.428;10.906;2024-01-06T03:43:45;4.60;;;3.22;;
16179;SDS011;8196;49.428;10.906;2024-01-06T03:46:12;5.18;;;3.70;;
16179;SDS011;8196;49.428;10.906;2024-01-06T03:48:40;4.90;;;3.67;;
16179;SDS011;8196;49.428;10.906;2024-01-06T03:51:07;7.10;;;3.83;;
16179;SDS011;8196;49.428;10.906;2024-01-06T03:53:34;4.25;;;3.05;;
16179;SDS011;8196;49.428;10.906;2024-01-06T03:56:02;5.38;;;3.80;;
16179;SDS011;8196;49.428;10.906;2024-01-06T03:58:29;5.05;;;3.22;;
16179;SDS011;8196;49.428;10.906;2024-01-06T04:00:56;5.40;;;3.63;;
16179;SDS011;8196;49.428;10.906;2024-01-06T04:03:24;4.85;;;4.03;;
16179;SDS011;8196;49.428;10.906;2024-01-06T04:05:51;5.10;;;3.90;;
16179;SDS011;8196;49.428;10.906;2024-01-06T04:08:18;4.18;;;3.05;;
16179;SDS011;8196;49.428;10.906;2024-01-06T04:10:45;6.90;;;4.28;;
16179;SDS011;8196;49.428;10.906;2024-01-06T04:13:12;5.20;;;3.80;;
16179;SDS011;8196;49.428;10.906;2024-01-06T04:15:40;3.90;;;3.33;;
16179;SDS011;8196;49.428;10.906;2024-01-06T04:18:07;5.57;;;4.00;;
16179;SDS011;8196;49.428;10.906;2024-01-06T04:20:36;5.38;;;3.85;;
16179;SDS011;8196;49.428;10.906;2024-01-06T04:23:03;5.00;;;3.50;;
16179;SDS011;8196;49.428;10.906;2024-01-06T04:25:30;3.38;;;3.00;;
16179;SDS011;8196;49.428;10.906;2024-01-06T04:27:57;4.75;;;3.15;;
16179;SDS011;8196;49.428;10.906;2024-01-06T04:30:24;3.85;;;2.92;;
16179;SDS011;8196;49.428;10.906;2024-01-06T04:35:20;2.72;;;2.08;;
16179;SDS011;8196;49.428;10.906;2024-01-06T04:37:47;2.40;;;1.93;;
16179;SDS011;8196;49.428;10.906;2024-01-06T04:40:15;1.70;;;1.60;;
16179;SDS011;8196;49.428;10.906;2024-01-06T04:42:42;2.53;;;1.60;;
16179;SDS011;8196;49.428;10.906;2024-01-06T04:45:10;1.90;;;1.50;;
16179;SDS011;8196;49.428;10.906;2024-01-06T04:47:37;2.58;;;2.17;;
16179;SDS011;8196;49.428;10.906;2024-01-06T04:50:04;3.63;;;2.67;;
16179;SDS011;8196;49.428;10.906;2024-01-06T04:52:32;5.97;;;3.60;;
16179;SDS011;8196;49.428;10.906;2024-01-06T04:54:59;5.20;;;4.17;;
16179;SDS011;8196;49.428;10.906;2024-01-06T04:57:27;5.68;;;4.35;;
16179;SDS011;8196;49.428;10.906;2024-01-06T04:59:54;4.78;;;4.10;;
16179;SDS011;8196;49.428;10.906;2024-01-06T05:02:22;6.18;;;3.33;;
16179;SDS011;8196;49.428;10.906;2024-01-06T05:04:49;3.97;;;2.95;;
16179;SDS011;8196;49.428;10.906;2024-01-06T05:07:16;3.70;;;2.70;;
16179;SDS011;8196;49.428;10.906;2024-01-06T05:09:43;4.15;;;3.25;;
16179;SDS011;8196;49.428;10.906;2024-01-06T05:12:11;4.73;;;2.87;;
16179;SDS011;8196;49.428;10.906;2024-01-06T05:14:38;3.17;;;2.73;;
16179;SDS011;8196;49.428;10.906;2024-01-06T05:17:05;4.03;;;2.63;;
16179;SDS011;8196;49.428;10.906;2024-01-06T05:19:32;4.47;;;2.95;;
16179;SDS011;8196;49.428;10.906;2024-01-06T05:22:00;5.05;;;3.65;;
16179;SDS011;8196;49.428;10.906;2024-01-06T05:24:27;5.20;;;3.70;;
16179;SDS011;8196;49.428;10.906;2024-01-06T05:26:54;6.18;;;4.00;;
16179;SDS011;8196;49.428;10.906;2024-01-06T05:29:21;7.40;;;3.83;;
16179;SDS011;8196;49.428;10.906;2024-01-06T05:31:48;6.38;;;3.67;;
16179;SDS011;8196;49.428;10.906;2024-01-06T05:34:16;5.47;;;3.45;;
16179;SDS011;8196;49.428;10.906;2024-01-06T05:36:43;4.55;;;3.35;;
16179;SDS011;8196;49.428;10.906;2024-01-06T05:39:10;3.33;;;2.70;;
16179;SDS011;8196;49.428;10.906;2024-01-06T05:41:38;4.20;;;2.85;;
16179;SDS011;8196;49.428;10.906;2024-01-06T05:44:05;4.30;;;2.97;;
16179;SDS011;8196;49.428;10.906;2024-01-06T05:46:34;4.40;;;2.78;;
16179;SDS011;8196;49.428;10.906;2024-01-06T05:49:01;2.27;;;2.00;;
16179;SDS011;8196;49.428;10.906;2024-01-06T05:51:29;3.33;;;2.17;;
16179;SDS011;8196;49.428;10.906;2024-01-06T05:53:56;3.22;;;2.28;;
16179;SDS011;8196;49.428;10.906;2024-01-06T05:56:24;1.90;;;1.70;;
16179;SDS011;8196;49.428;10.906;2024-01-06T05:58:52;2.95;;;2.53;;
16179;SDS011;8196;49.428;10.906;2024-01-06T06:01:19;5.90;;;3.43;;
16179;SDS011;8196;49.428;10.906;2024-01-06T06:03:49;3.28;;;2.67;;
16179;SDS011;8196;49.428;10.906;2024-01-06T06:06:18;3.15;;;2.40;;
16179;SDS011;8196;49.428;10.906;2024-01-06T06:08:45;4.10;;;2.50;;
16179;SDS011;8196;49.428;10.906;2024-01-06T06:11:14;4.80;;;3.80;;
16179;SDS011;8196;49.428;10.906;2024-01-06T06:13:42;4.70;;;3.67;;
16179;SDS011;8196;49.428;10.906;2024-01-06T06:16:10;5.82;;;3.65;;
16179;SDS011;8196;49.428;10.906;2024-01-06T06:18:39;5.95;;;4.07;;
16179;SDS011;8196;49.428;10.906;2024-01-06T06:21:06;3.90;;;3.00;;
16179;SDS011;8196;49.428;10.906;2024-01-06T06:23:34;3.80;;;2.75;;
16179;SDS011;8196;49.428;10.906;2024-01-06T06:26:05;4.68;;;3.03;;
16179;SDS011;8196;49.428;10.906;2024-01-06T06:28:33;3.92;;;2.45;;
16179;SDS011;8196;49.428;10.906;2024-01-06T06:31:01;3.22;;;2.53;;
16179;SDS011;8196;49.428;10.906;2024-01-06T06:33:28;3.15;;;2.35;;
16179;SDS011;8196;49.428;10.906;2024-01-06T06:35:56;4.10;;;2.70;;
16179;SDS011;8196;49.428;10.906;2024-01-06T06:38:26;2.72;;;2.10;;
16179;SDS011;8196;49.428;10.906;2024-01-06T06:40:53;2.30;;;2.10;;
16179;SDS011;8196;49.428;10.906;2024-01-06T06:43:20;3.28;;;2.38;;
16179;SDS011;8196;49.428;10.906;2024-01-06T06:45:47;3.83;;;2.97;;
16179;SDS011;8196;49.428;10.906;2024-01-06T06:48:15;5.65;;;3.63;;
16179;SDS011;8196;49.428;10.906;2024-01-06T06:50:42;3.35;;;2.85;;
16179;SDS011;8196;49.428;10.906;2024-01-06T06:53:09;5.30;;;3.58;;
16179;SDS011;8196;49.428;10.906;2024-01-06T06:55:37;4.43;;;3.10;;
16179;SDS011;8196;49.428;10.906;2024-01-06T06:58:04;3.67;;;2.53;;
16179;SDS011;8196;49.428;10.906;2024-01-06T07:00:32;4.35;;;2.65;;
16179;SDS011;8196;49.428;10.906;2024-01-06T07:02:59;3.92;;;2.70;;
16179;SDS011;8196;49.428;10.906;2024-01-06T07:05:27;3.83;;;2.55;;
16179;SDS011;8196;49.428;10.906;2024-01-06T07:07:59;2.50;;;2.13;;
16179;SDS011;8196;49.428;10.906;2024-01-06T07:10:27;2.42;;;2.20;;
16179;SDS011;8196;49.428;10.906;2024-01-06T07:12:54;4.10;;;2.40;;
16179;SDS011;8196;49.428;10.906;2024-01-06T07:15:21;3.65;;;2.30;;
16179;SDS011;8196;49.428;10.906;2024-01-06T07:17:48;4.20;;;3.28;;
16179;SDS011;8196;49.428;10.906;2024-01-06T07:20:16;4.50;;;3.58;;
16179;SDS011;8196;49.428;10.906;2024-01-06T07:22:43;5.28;;;4.10;;
16179;SDS011;8196;49.428;10.906;2024-01-06T07:25:10;5.75;;;4.60;;
16179;SDS011;8196;49.428;10.906;2024-01-06T07:27:37;6.10;;;4.30;;
16179;SDS011;8196;49.428;10.906;2024-01-06T07:30:05;4.80;;;3.70;;
16179;SDS011;8196;49.428;10.906;2024-01-06T07:32:34;4.00;;;2.95;;
16179;SDS011;8196;49.428;10.906;2024-01-06T07:35:01;4.47;;;2.85;;
16179;SDS011;8196;49.428;10.906;2024-01-06T07:37:33;5.10;;;3.67;;
16179;SDS011;8196;49.428;10.906;2024-01-06T07:40:01;5.17;;;3.60;;
16179;SDS011;8196;49.428;10.906;2024-01-06T07:42:28;4.10;;;3.17;;
16179;SDS011;8196;49.428;10.906;2024-01-06T07:44:55;5.13;;;2.88;;
16179;SDS011;8196;49.428;10.906;2024-01-06T07:47:22;4.13;;;2.88;;
16179;SDS011;8196;49.428;10.906;2024-01-06T07:49:50;2.58;;;2.35;;
16179;SDS011;8196;49.428;10.906;2024-01-06T07:52:19;5.07;;;2.97;;
16179;SDS011;8196;49.428;10.906;2024-01-06T07:54:46;3.13;;;2.50;;
16179;SDS011;8196;49.428;10.906;2024-01-06T07:57:14;3.83;;;2.70;;
16179;SDS011;8196;49.428;10.906;2024-01-06T07:59:42;4.85;;;2.97;;
16179;SDS011;8196;49.428;10.906;2024-01-06T08:02:09;2.72;;;2.42;;
16179;SDS011;8196;49.428;10.906;2024-01-06T08:04:36;4.35;;;3.00;;
16179;SDS011;8196;49.428;10.906;2024-01-06T08:07:03;5.57;;;3.42;;
16179;SDS011;8196;49.428;10.906;2024-01-06T08:09:31;5.72;;;3.80;;
16179;SDS011;8196;49.428;10.906;2024-01-06T08:11:58;5.07;;;3.25;;
16179;SDS011;8196;49.428;10.906;2024-01-06T08:14:25;5.53;;;3.65;;
16179;SDS011;8196;49.428;10.906;2024-01-06T08:16:52;3.50;;;2.83;;
16179;SDS011;8196;49.428;10.906;2024-01-06T08:19:20;3.77;;;2.80;;
16179;SDS011;8196;49.428;10.906;2024-01-06T08:21:47;7.25;;;3.45;;
16179;SDS011;8196;49.428;10.906;2024-01-06T08:24:14;5.88;;;3.80;;
16179;SDS011;8196;49.428;10.906;2024-01-06T08:26:42;5.63;;;4.15;;
16179;SDS011;8196;49.428;10.906;2024-01-06T08:29:09;6.43;;;3.95;;
16179;SDS011;8196;49.428;10.906;2024-01-06T08:31:36;4.53;;;3.10;;
16179;SDS011;8196;49.428;10.906;2024-01-06T08:34:03;5.38;;;4.10;;
16179;SDS011;8196;49.428;10.906;2024-01-06T08:36:34;6.25;;;4.38;;
16179;SDS011;8196;49.428;10.906;2024-01-06T08:39:01;4.40;;;3.05;;
16179;SDS011;8196;49.428;10.906;2024-01-06T08:41:29;4.40;;;2.75;;
16179;SDS011;8196;49.428;10.906;2024-01-06T08:43:56;3.72;;;3.17;;
16179;SDS011;8196;49.428;10.906;2024-01-06T08:46:23;3.20;;;2.90;;
16179;SDS011;8196;49.428;10.906;2024-01-06T08:48:51;5.05;;;4.18;;
16179;SDS011;8196;49.428;10.906;2024-01-06T08:51:18;3.63;;;3.20;;
16179;SDS011;8196;49.428;10.906;2024-01-06T08:53:46;3.45;;;2.83;;
16179;SDS011;8196;49.428;10.906;2024-01-06T08:56:14;4.67;;;3.43;;
16179;SDS011;8196;49.428;10.906;2024-01-06T08:58:42;2.92;;;2.28;;
16179;SDS011;8196;49.428;10.906;2024-01-06T09:01:09;2.53;;;2.10;;
16179;SDS011;8196;49.428;10.906;2024-01-06T09:03:37;2.78;;;2.47;;
16179;SDS011;8196;49.428;10.906;2024-01-06T09:06:04;11.05;;;7.68;;
16179;SDS011;8196;49.428;10.906;2024-01-06T09:08:32;7.90;;;4.97;;
16179;SDS011;8196;49.428;10.906;2024-01-06T09:11:00;8.05;;;5.80;;
16179;SDS011;8196;49.428;10.906;2024-01-06T09:13:27;7.90;;;5.60;;
16179;SDS011;8196;49.428;10.906;2024-01-06T09:15:55;10.07;;;6.28;;
16179;SDS011;8196;49.428;10.906;2024-01-06T09:18:26;6.78;;;4.72;;
16179;SDS011;8196;49.428;10.906;2024-01-06T09:20:54;5.85;;;4.75;;
16179;SDS011;8196;49.428;10.906;2024-01-06T09:23:22;4.87;;;3.73;;
16179;SDS011;8196;49.428;10.906;2024-01-06T09:25:50;3.63;;;3.10;;
16179;SDS011;8196;49.428;10.906;2024-01-06T09:28:18;3.10;;;2.67;;
16179;SDS011;8196;49.428;10.906;2024-01-06T09:30:47;4.88;;;3.97;;
16179;SDS011;8196;49.428;10.906;2024-01-06T09:33:15;7.72;;;5.15;;
16179;SDS011;8196;49.428;10.906;2024-01-06T09:35:44;8.13;;;5.95;;
16179;SDS011;8196;49.428;10.906;2024-01-06T09:38:11;8.60;;;5.10;;
16179;SDS011;8196;49.428;10.906;2024-01-06T09:40:42;7.32;;;5.20;;
16179;SDS011;8196;49.428;10.906;2024-01-06T09:43:10;5.20;;;4.13;;
16179;SDS011;8196;49.428;10.906;2024-01-06T09:45:38;7.22;;;5.43;;
16179;SDS011;8196;49.428;10.906;2024-01-06T09:48:10;6.13;;;5.53;;
16179;SDS011;8196;49.428;10.906;2024-01-06T09:50:40;7.85;;;5.50;;
16179;SDS011;8196;49.428;10.906;2024-01-06T09:53:08;7.07;;;4.35;;
16179;SDS011;8196;49.428;10.906;2024-01-06T09:55:37;5.65;;;4.03;;
16179;SDS011;8196;49.428;10.906;2024-01-06T09:58:04;4.57;;;3.58;;
16179;SDS011;8196;49.428;10.906;2024-01-06T10:00:33;5.07;;;4.47;;
16179;SDS011;8196;49.428;10.906;2024-01-06T10:03:00;4.97;;;4.20;;
16179;SDS011;8196;49.428;10.906;2024-01-06T10:05:27;5.00;;;3.70;;
16179;SDS011;8196;49.428;10.906;2024-01-06T10:07:57;4.45;;;3.80;;
16179;SDS011;8196;49.428;10.906;2024-01-06T10:10:24;7.65;;;6.07;;
16179;SDS011;8196;49.428;10.906;2024-01-06T10:12:52;7.87;;;6.00;;
16179;SDS011;8196;49.428;10.906;2024-01-06T10:15:21;6.10;;;5.13;;
16179;SDS011;8196;49.428;10.906;2024-01-06T10:17:48;7.47;;;6.32;;
16179;SDS011;8196;49.428;10.906;2024-01-06T10:20:16;10.27;;;6.93;;
16179;SDS011;8196;49.428;10.906;2024-01-06T10:22:44;6.38;;;5.60;;
16179;SDS011;8196;49.428;10.906;2024-01-06T10:25:12;7.68;;;5.80;;
16179;SDS011;8196;49.428;10.906;2024-01-06T10:27:40;6.68;;;5.50;;
16179;SDS011;8196;49.428;10.906;2024-01-06T10:30:08;7.88;;;4.90;;
16179;SDS011;8196;49.428;10.906;2024-01-06T10:32:37;6.90;;;5.18;;
16179;SDS011;8196;49.428;10.906;2024-01-06T10:35:04;6.05;;;4.93;;
16179;SDS011;8196;49.428;10.906;2024-01-06T10:37:33;5.95;;;4.80;;
16179;SDS011;8196;49.428;10.906;2024-01-06T10:40:06;5.70;;;4.75;;
16179;SDS011;8196;49.428;10.906;2024-01-06T10:42:33;9.20;;;5.87;;
16179;SDS011;8196;49.428;10.906;2024-01-06T10:45:00;6.40;;;4.40;;
16179;SDS011;8196;49.428;10.906;2024-01-06T10:47:29;6.45;;;4.88;;
16179;SDS011;8196;49.428;10.906;2024-01-06T10:49:58;6.57;;;4.82;;
16179;SDS011;8196;49.428;10.906;2024-01-06T10:52:27;4.93;;;3.97;;
16179;SDS011;8196;49.428;10.906;2024-01-06T10:54:55;3.70;;;3.13;;
16179;SDS011;8196;49.428;10.906;2024-01-06T10:57:22;4.22;;;3.67;;
16179;SDS011;8196;49.428;10.906;2024-01-06T10:59:51;4.83;;;3.73;;
16179;SDS011;8196;49.428;10.906;2024-01-06T11:02:19;9.10;;;6.38;;
16179;SDS011;8196;49.428;10.906;2024-01-06T11:04:46;7.57;;;5.88;;
16179;SDS011;8196;49.428;10.906;2024-01-06T11:07:15;7.53;;;5.28;;
16179;SDS011;8196;49.428;10.906;2024-01-06T11:09:46;6.65;;;5.05;;
16179;SDS011;8196;49.428;10.906;2024-01-06T11:12:14;8.35;;;5.65;;
16179;SDS011;8196;49.428;10.906;2024-01-06T11:14:42;6.20;;;4.95;;
16179;SDS011;8196;49.428;10.906;2024-01-06T11:17:11;6.35;;;4.63;;
16179;SDS011;8196;49.428;10.906;2024-01-06T11:24:55;3.88;;;3.00;;
16179;SDS011;8196;49.428;10.906;2024-01-06T11:27:25;3.92;;;3.20;;
16179;SDS011;8196;49.428;10.906;2024-01-06T11:29:56;5.35;;;4.32;;
16179;SDS011;8196;49.428;10.906;2024-01-06T11:32:27;5.07;;;4.22;;
16179;SDS011;8196;49.428;10.906;2024-01-06T11:34:55;4.27;;;3.63;;
16179;SDS011;8196;49.428;10.906;2024-01-06T11:37:25;4.25;;;3.75;;
16179;SDS011;8196;49.428;10.906;2024-01-06T11:39:52;3.80;;;3.47;;
16179;SDS011;8196;49.428;10.906;2024-01-06T11:42:20;4.78;;;4.15;;
16179;SDS011;8196;49.428;10.906;2024-01-06T11:44:50;4.70;;;3.65;;
16179;SDS011;8196;49.428;10.906;2024-01-06T11:47:18;6.28;;;5.18;;
16179;SDS011;8196;49.428;10.906;2024-01-06T11:49:51;6.27;;;5.33;;
16179;SDS011;8196;49.428;10.906;2024-01-06T11:52:21;5.43;;;4.35;;
16179;SDS011;8196;49.428;10.906;2024-01-06T11:54:48;4.35;;;3.70;;
16179;SDS011;8196;49.428;10.906;2024-01-06T11:57:16;4.90;;;3.83;;
16179;SDS011;8196;49.428;10.906;2024-01-06T11:59:43;3.92;;;3.53;;
16179;SDS011;8196;49.428;10.906;2024-01-06T12:02:11;3.20;;;2.90;;
16179;SDS011;8196;49.428;10.906;2024-01-06T12:04:39;3.30;;;3.00;;
16179;SDS011;8196;49.428;10.906;2024-01-06T12:07:07;5.43;;;3.78;;
16179;SDS011;8196;49.428;10.906;2024-01-06T12:09:35;4.20;;;3.33;;
16179;SDS011;8196;49.428;10.906;2024-01-06T12:12:03;4.35;;;3.60;;
16179;SDS011;8196;49.428;10.906;2024-01-06T12:14:31;3.97;;;3.10;;
16179;SDS011;8196;49.428;10.906;2024-01-06T12:16:59;4.32;;;3.85;;
16179;SDS011;8196;49.428;10.906;2024-01-06T12:19:30;3.78;;;3.42;;
16179;SDS011;8196;49.428;10.906;2024-01-06T12:22:00;3.97;;;3.38;;
16179;SDS011;8196;49.428;10.906;2024-01-06T12:24:29;3.90;;;3.50;;
16179;SDS011;8196;49.428;10.906;2024-01-06T12:26:56;4.45;;;3.22;;
16179;SDS011;8196;49.428;10.906;2024-01-06T12:29:27;5.88;;;4.28;;
16179;SDS011;8196;49.428;10.906;2024-01-06T12:31:55;4.45;;;3.40;;
16179;SDS011;8196;49.428;10.906;2024-01-06T12:34:23;5.32;;;4.38;;
16179;SDS011;8196;49.428;10.906;2024-01-06T12:36:52;5.70;;;4.68;;
16179;SDS011;8196;49.428;10.906;2024-01-06T12:39:21;5.10;;;4.18;;
16179;SDS011;8196;49.428;10.906;2024-01-06T12:41:50;6.50;;;3.92;;
16179;SDS011;8196;49.428;10.906;2024-01-06T12:44:18;5.10;;;3.95;;
16179;SDS011;8196;49.428;10.906;2024-01-06T12:46:45;4.53;;;3.70;;
16179;SDS011;8196;49.428;10.906;2024-01-06T12:49:12;3.80;;;3.40;;
16179;SDS011;8196;49.428;10.906;2024-01-06T12:51:40;3.75;;;3.35;;
16179;SDS011;8196;49.428;10.906;2024-01-06T12:54:07;4.40;;;3.13;;
16179;SDS011;8196;49.428;10.906;2024-01-06T12:56:34;2.97;;;2.58;;
16179;SDS011;8196;49.428;10.906;2024-01-06T12:59:02;3.15;;;2.80;;
16179;SDS011;8196;49.428;10.906;2024-01-06T13:01:29;4.57;;;3.33;;
16179;SDS011;8196;49.428;10.906;2024-01-06T13:03:57;3.25;;;3.00;;
16179;SDS011;8196;49.428;10.906;2024-01-06T13:06:24;3.42;;;2.83;;
16179;SDS011;8196;49.428;10.906;2024-01-06T13:11:19;5.63;;;3.90;;
16179;SDS011;8196;49.428;10.906;2024-01-06T13:13:46;3.90;;;3.50;;
16179;SDS011;8196;49.428;10.906;2024-01-06T13:16:13;5.38;;;4.05;;
16179;SDS011;8196;49.428;10.906;2024-01-06T13:18:41;4.13;;;3.00;;
16179;SDS011;8196;49.428;10.906;2024-01-06T13:21:08;3.88;;;2.75;;
16179;SDS011;8196;49.428;10.906;2024-01-06T13:23:35;3.30;;;2.95;;
16179;SDS011;8196;49.428;10.906;2024-01-06T13:26:02;5.22;;;4.03;;
16179;SDS011;8196;49.428;10.906;2024-01-06T13:28:29;4.20;;;3.22;;
16179;SDS011;8196;49.428;10.906;2024-01-06T13:30:57;3.20;;;2.90;;
16179;SDS011;8196;49.428;10.906;2024-01-06T13:33:24;2.70;;;2.50;;
16179;SDS011;8196;49.428;10.906;2024-01-06T13:35:52;2.53;;;2.33;;
16179;SDS011;8196;49.428;10.906;2024-01-06T13:38:19;4.78;;;3.47;;
16179;SDS011;8196;49.428;10.906;2024-01-06T13:40:48;4.93;;;3.85;;
16179;SDS011;8196;49.428;10.906;2024-01-06T13:43:15;3.60;;;2.92;;
16179;SDS011;8196;49.428;10.906;2024-01-06T13:45:42;3.70;;;2.72;;
16179;SDS011;8196;49.428;10.906;2024-01-06T13:48:11;3.55;;;3.15;;
16179;SDS011;8196;49.428;10.906;2024-01-06T13:50:39;3.60;;;3.20;;
16179;SDS011;8196;49.428;10.906;2024-01-06T13:53:06;3.00;;;2.67;;
16179;SDS011;8196;49.428;10.906;2024-01-06T13:55:33;3.15;;;2.80;;
16179;SDS011;8196;49.428;10.906;2024-01-06T13:58:00;5.40;;;4.40;;
16179;SDS011;8196;49.428;10.906;2024-01-06T14:00:27;4.07;;;3.67;;
16179;SDS011;8196;49.428;10.906;2024-01-06T14:02:55;4.20;;;2.90;;
16179;SDS011;8196;49.428;10.906;2024-01-06T14:05:22;3.70;;;3.30;;
16179;SDS011;8196;49.428;10.906;2024-01-06T14:07:49;3.13;;;2.83;;
16179;SDS011;8196;49.428;10.906;2024-01-06T14:10:17;3.97;;;3.03;;
16179;SDS011;8196;49.428;10.906;2024-01-06T14:12:44;4.00;;;3.00;;
16179;SDS011;8196;49.428;10.906;2024-01-06T14:15:12;4.93;;;3.10;;
16179;SDS011;8196;49.428;10.906;2024-01-06T14:17:39;3.15;;;2.85;;
16179;SDS011;8196;49.428;10.906;2024-01-06T14:20:07;3.30;;;3.00;;
16179;SDS011;8196;49.428;10.906;2024-01-06T14:22:35;3.17;;;2.83;;
16179;SDS011;8196;49.428;10.906;2024-01-06T14:25:03;3.50;;;2.93;;
16179;SDS011;8196;49.428;10.906;2024-01-06T14:27:32;4.50;;;3.70;;
16179;SDS011;8196;49.428;10.906;2024-01-06T14:30:00;3.45;;;3.15;;
16179;SDS011;8196;49.428;10.906;2024-01-06T14:32:27;3.60;;;3.30;;
16179;SDS011;8196;49.428;10.906;2024-01-06T14:34:56;2.90;;;2.55;;
16179;SDS011;8196;49.428;10.906;2024-01-06T14:37:23;3.33;;;2.55;;
16179;SDS011;8196;49.428;10.906;2024-01-06T14:39:50;3.50;;;3.00;;
16179;SDS011;8196;49.428;10.906;2024-01-06T14:42:17;4.53;;;3.50;;
16179;SDS011;8196;49.428;10.906;2024-01-06T14:44:45;4.13;;;3.20;;
16179;SDS011;8196;49.428;10.906;2024-01-06T14:47:12;4.97;;;3.80;;
16179;SDS011;8196;49.428;10.906;2024-01-06T14:49:40;3.53;;;3.03;;
16179;SDS011;8196;49.428;10.906;2024-01-06T14:52:07;4.63;;;3.77;;
16179;SDS011;8196;49.428;10.906;2024-01-06T14:54:34;4.25;;;3.42;;
16179;SDS011;8196;49.428;10.906;2024-01-06T14:57:02;3.40;;;3.10;;
16179;SDS011;8196;49.428;10.906;2024-01-06T14:59:29;5.63;;;4.03;;
16179;SDS011;8196;49.428;10.906;2024-01-06T15:01:56;5.07;;;3.15;;
16179;SDS011;8196;49.428;10.906;2024-01-06T15:04:23;4.00;;;3.17;;
16179;SDS011;8196;49.428;10.906;2024-01-06T15:06:54;3.20;;;2.88;;